createdAt,value
2022-11-27T00:01:14.153Z,2.92
2022-11-27T00:03:41.451Z,2.67
2022-11-27T00:06:12.007Z,2.70
2022-11-27T00:08:38.417Z,2.53
2022-11-27T00:11:13.370Z,3.03
2022-11-27T00:13:40.413Z,3.30
2022-11-27T00:16:08.013Z,2.50
2022-11-27T00:18:35.413Z,2.47
2022-11-27T00:21:12.324Z,2.78
2022-11-27T00:23:39.158Z,2.40
2022-11-27T00:26:06.477Z,2.75
2022-11-27T00:28:33.989Z,2.97
2022-11-27T00:31:02.221Z,3.00
2022-11-27T00:33:28.891Z,2.83
2022-11-27T00:35:55.378Z,2.90
2022-11-27T00:38:21.893Z,2.60
2022-11-27T00:40:48.556Z,3.00
2022-11-27T00:43:14.945Z,3.03
2022-11-27T00:45:41.344Z,2.78
2022-11-27T00:48:07.662Z,2.45
2022-11-27T00:50:34.042Z,2.75
2022-11-27T00:53:00.443Z,3.33
2022-11-27T00:55:27.086Z,3.60
2022-11-27T00:57:53.515Z,2.33
2022-11-27T01:00:20.202Z,2.65
2022-11-27T01:02:46.636Z,2.67
2022-11-27T01:05:12.982Z,2.80
2022-11-27T01:07:39.457Z,2.67
2022-11-27T01:10:06.660Z,2.83
2022-11-27T01:12:33.052Z,3.03
2022-11-27T01:14:59.628Z,3.10
2022-11-27T01:17:26.049Z,2.47
2022-11-27T01:19:52.431Z,2.90
2022-11-27T01:22:18.866Z,3.30
2022-11-27T01:24:45.248Z,2.50
2022-11-27T01:27:11.718Z,2.88
2022-11-27T01:29:38.022Z,2.58
2022-11-27T01:32:04.576Z,2.40
2022-11-27T01:34:30.936Z,3.00
2022-11-27T01:36:57.243Z,3.08
2022-11-27T01:39:24.739Z,2.80
2022-11-27T01:41:51.369Z,2.92
2022-11-27T01:44:23.974Z,2.60
2022-11-27T01:46:56.711Z,2.50
2022-11-27T01:49:33.870Z,2.47
2022-11-27T01:52:21.055Z,2.72
2022-11-27T01:55:02.091Z,2.45
2022-11-27T01:57:36.514Z,2.77
2022-11-27T02:00:06.488Z,2.47
2022-11-27T02:02:32.827Z,2.83
2022-11-27T02:04:59.316Z,2.90
2022-11-27T02:07:25.945Z,3.33
2022-11-27T02:09:52.516Z,2.70
2022-11-27T02:12:25.154Z,2.58
2022-11-27T02:15:09.345Z,2.95
2022-11-27T02:17:50.302Z,2.60
2022-11-27T02:20:19.689Z,2.50
2022-11-27T02:23:10.395Z,3.00
2022-11-27T02:26:13.678Z,2.50
2022-11-27T02:28:58.557Z,2.70
2022-11-27T02:31:37.882Z,2.10
2022-11-27T02:34:16.323Z,3.03
2022-11-27T02:36:49.934Z,2.43
2022-11-27T02:39:22.946Z,3.03
2022-11-27T02:41:57.517Z,2.30
2022-11-27T02:44:29.479Z,2.83
2022-11-27T02:46:56.164Z,2.95
2022-11-27T02:49:23.774Z,2.87
2022-11-27T02:51:56.463Z,2.70
2022-11-27T02:54:28.419Z,2.97
2022-11-27T02:56:57.970Z,2.72
2022-11-27T02:59:29.219Z,2.67
2022-11-27T03:01:59.121Z,3.00
2022-11-27T03:04:34.414Z,2.38
2022-11-27T03:07:07.198Z,2.60
2022-11-27T03:09:42.240Z,3.00
2022-11-27T03:12:11.628Z,2.50
2022-11-27T03:14:40.625Z,2.40
2022-11-27T03:17:40.503Z,2.63
2022-11-27T03:20:15.301Z,2.70
2022-11-27T03:22:42.991Z,3.28
2022-11-27T03:25:09.417Z,2.55
2022-11-27T03:27:41.757Z,2.63
2022-11-27T03:30:11.125Z,2.42
2022-11-27T03:32:38.066Z,3.08
2022-11-27T03:35:09.765Z,2.80
2022-11-27T03:37:36.886Z,2.75
2022-11-27T03:40:05.096Z,3.17
2022-11-27T03:42:38.494Z,2.80
2022-11-27T03:45:21.761Z,2.90
2022-11-27T03:48:11.489Z,2.67
2022-11-27T03:51:03.527Z,2.88
2022-11-27T03:54:04.554Z,3.10
2022-11-27T03:56:47.661Z,2.53
2022-11-27T03:59:20.298Z,2.42
2022-11-27T04:01:47.327Z,2.63
2022-11-27T04:04:13.862Z,2.80
2022-11-27T04:06:40.268Z,2.73
2022-11-27T04:09:06.770Z,2.80
2022-11-27T04:11:33.167Z,2.70
2022-11-27T04:13:59.546Z,2.65
2022-11-27T04:16:25.980Z,2.30
2022-11-27T04:18:52.351Z,2.47
2022-11-27T04:21:19.035Z,2.50
2022-11-27T04:23:45.575Z,2.67
2022-11-27T04:26:12.120Z,2.47
2022-11-27T04:28:38.488Z,2.58
2022-11-27T04:31:05.058Z,2.90
2022-11-27T04:33:31.574Z,2.92
2022-11-27T04:35:57.906Z,2.42
2022-11-27T04:38:24.311Z,2.40
2022-11-27T04:40:53.723Z,2.08
2022-11-27T04:43:20.093Z,2.47
2022-11-27T04:45:46.414Z,2.08
2022-11-27T04:48:12.821Z,2.40
2022-11-27T04:50:39.227Z,2.13
2022-11-27T04:53:05.630Z,2.38
2022-11-27T04:55:32.045Z,2.50
2022-11-27T04:57:58.427Z,2.38
2022-11-27T05:00:25.002Z,2.42
2022-11-27T05:02:51.465Z,2.13
2022-11-27T05:05:17.970Z,2.25
2022-11-27T05:07:44.399Z,2.17
2022-11-27T05:10:11.197Z,2.13
2022-11-27T05:12:37.647Z,2.22
2022-11-27T05:15:07.670Z,2.28
2022-11-27T05:17:34.081Z,2.33
2022-11-27T05:20:00.447Z,2.13
2022-11-27T05:22:26.831Z,2.30
2022-11-27T05:24:53.238Z,1.95
2022-11-27T05:27:19.613Z,2.00
2022-11-27T05:29:46.216Z,1.63
2022-11-27T05:32:12.535Z,1.67
2022-11-27T05:34:39.121Z,1.65
2022-11-27T05:37:06.030Z,1.52
2022-11-27T05:39:32.403Z,1.70
2022-11-27T05:41:58.770Z,1.77
2022-11-27T05:44:26.647Z,1.73
2022-11-27T05:46:53.137Z,1.95
2022-11-27T05:49:19.599Z,1.83
2022-11-27T05:51:51.065Z,1.55
2022-11-27T05:54:18.231Z,1.80
2022-11-27T05:56:44.619Z,1.70
2022-11-27T05:59:11.622Z,1.60
2022-11-27T06:01:38.189Z,1.63
2022-11-27T06:04:04.757Z,1.38
2022-11-27T06:06:31.152Z,1.70
2022-11-27T06:08:57.603Z,1.63
2022-11-27T06:11:24.209Z,1.67
2022-11-27T06:13:50.667Z,2.05
2022-11-27T06:16:20.098Z,1.40
2022-11-27T06:18:50.204Z,2.00
2022-11-27T06:21:16.763Z,1.50
2022-11-27T06:23:44.370Z,1.70
2022-11-27T06:26:19.344Z,1.67
2022-11-27T06:28:47.539Z,1.95
2022-11-27T06:31:25.632Z,1.70
2022-11-27T06:33:53.681Z,1.70
2022-11-27T06:36:21.165Z,1.77
2022-11-27T06:38:47.758Z,2.25
2022-11-27T06:41:17.498Z,1.83
2022-11-27T06:43:44.598Z,1.58
2022-11-27T06:46:19.126Z,1.50
2022-11-27T06:48:47.379Z,1.85
2022-11-27T06:51:17.290Z,2.00
2022-11-27T06:53:44.875Z,1.58
2022-11-27T06:56:17.297Z,1.60
2022-11-27T06:58:44.155Z,1.80
2022-11-27T07:01:14.136Z,1.45
2022-11-27T07:03:41.238Z,1.38
2022-11-27T07:06:09.736Z,2.00
2022-11-27T07:08:37.079Z,1.75
2022-11-27T07:11:07.553Z,1.57
2022-11-27T07:13:34.035Z,1.92
2022-11-27T07:16:06.711Z,1.70
2022-11-27T07:18:40.164Z,1.65
2022-11-27T07:21:06.659Z,1.70
2022-11-27T07:23:33.339Z,1.90
2022-11-27T07:26:04.709Z,1.73
2022-11-27T07:28:31.212Z,1.70
2022-11-27T07:30:58.664Z,1.60
2022-11-27T07:33:25.420Z,1.95
2022-11-27T07:36:03.932Z,2.00
2022-11-27T07:38:30.349Z,1.50
2022-11-27T07:41:03.046Z,1.90
2022-11-27T07:43:30.570Z,2.13
2022-11-27T07:45:57.462Z,1.52
2022-11-27T07:48:24.545Z,1.30
2022-11-27T07:50:51.001Z,1.73
2022-11-27T07:53:17.405Z,1.70
2022-11-27T07:55:43.815Z,1.70
2022-11-27T07:58:10.387Z,2.60
2022-11-27T08:00:37.302Z,1.63
2022-11-27T08:03:04.047Z,2.00
2022-11-27T08:05:30.597Z,1.83
2022-11-27T08:08:00.000Z,2.17
2022-11-27T08:10:27.274Z,1.63
2022-11-27T08:12:53.604Z,1.57
2022-11-27T08:15:19.989Z,1.50
2022-11-27T08:17:46.318Z,1.95
2022-11-27T08:20:12.950Z,1.90
2022-11-27T08:22:39.419Z,2.17
2022-11-27T08:25:06.164Z,1.90
2022-11-27T08:27:33.458Z,2.20
2022-11-27T08:30:00.394Z,1.73
2022-11-27T08:32:26.751Z,1.70
2022-11-27T08:34:53.099Z,2.22
2022-11-27T08:37:19.539Z,1.63
2022-11-27T08:39:45.899Z,2.00
2022-11-27T08:42:12.265Z,2.60
2022-11-27T08:44:39.058Z,2.17
2022-11-27T08:47:05.992Z,2.70
2022-11-27T08:49:32.367Z,2.40
2022-11-27T08:51:58.684Z,2.38
2022-11-27T08:54:25.034Z,2.00
2022-11-27T08:56:51.926Z,2.30
2022-11-27T08:59:18.414Z,2.05
2022-11-27T09:01:44.822Z,2.40
2022-11-27T09:04:11.145Z,1.98
2022-11-27T09:06:41.350Z,2.20
2022-11-27T09:09:07.894Z,2.40
2022-11-27T09:11:35.004Z,2.38
2022-11-27T09:14:03.476Z,2.20
2022-11-27T09:16:30.643Z,2.80
2022-11-27T09:18:58.026Z,2.35
2022-11-27T09:21:27.144Z,2.80
2022-11-27T09:23:55.039Z,2.10
2022-11-27T09:26:23.842Z,2.03
2022-11-27T09:28:50.308Z,2.15
2022-11-27T09:31:17.050Z,2.33
2022-11-27T09:33:44.246Z,2.38
2022-11-27T09:36:13.589Z,2.72
2022-11-27T09:38:40.135Z,2.50
2022-11-27T09:41:28.097Z,2.15
2022-11-27T09:44:02.346Z,2.72
2022-11-27T09:46:32.580Z,2.83
2022-11-27T09:49:03.317Z,3.25
2022-11-27T09:51:41.340Z,3.17
2022-11-27T09:54:13.824Z,2.75
2022-11-27T09:56:42.942Z,2.85
2022-11-27T09:59:16.083Z,2.63
2022-11-27T10:01:47.675Z,2.72
2022-11-27T10:04:19.862Z,2.60
2022-11-27T10:07:12.749Z,3.00
2022-11-27T10:09:57.447Z,3.42
2022-11-27T10:12:49.935Z,2.85
2022-11-27T10:15:25.656Z,2.83
2022-11-27T10:18:06.609Z,2.53
2022-11-27T10:20:36.950Z,2.85
2022-11-27T10:23:14.582Z,2.72
2022-11-27T10:25:52.904Z,2.83
2022-11-27T10:28:29.877Z,3.45
2022-11-27T10:31:02.715Z,3.43
2022-11-27T10:33:53.253Z,3.22
2022-11-27T10:36:40.299Z,3.00
2022-11-27T10:39:15.643Z,3.20
2022-11-27T10:41:51.806Z,3.35
2022-11-27T10:44:28.629Z,3.40
2022-11-27T10:47:01.906Z,3.30
2022-11-27T10:49:28.281Z,3.20
2022-11-27T10:51:54.667Z,3.15
2022-11-27T10:54:34.384Z,3.55
2022-11-27T10:57:22.481Z,3.40
2022-11-27T10:59:59.296Z,3.33
2022-11-27T11:02:31.834Z,3.15
2022-11-27T11:05:24.081Z,3.08
2022-11-27T11:07:58.776Z,3.15
2022-11-27T11:10:31.992Z,3.67
2022-11-27T11:13:28.575Z,3.13
2022-11-27T11:15:56.946Z,3.58
2022-11-27T11:18:31.166Z,4.32
2022-11-27T11:21:01.011Z,3.33
2022-11-27T11:23:31.553Z,4.03
2022-11-27T11:26:24.253Z,3.47
2022-11-27T11:28:53.669Z,3.90
2022-11-27T11:31:28.420Z,2.78
2022-11-27T11:34:05.033Z,3.22
2022-11-27T11:36:32.035Z,3.13
2022-11-27T11:38:58.617Z,3.67
2022-11-27T11:41:25.098Z,3.25
2022-11-27T11:43:57.776Z,3.60
2022-11-27T11:46:28.630Z,3.83
2022-11-27T11:49:07.229Z,3.73
2022-11-27T11:51:57.433Z,3.20
2022-11-27T11:54:48.854Z,3.13
2022-11-27T11:57:41.349Z,3.20
2022-11-27T12:00:26.628Z,3.25
2022-11-27T12:03:33.847Z,3.60
2022-11-27T12:06:38.116Z,3.47
2022-11-27T12:09:22.834Z,2.95
2022-11-27T12:12:07.182Z,3.25
2022-11-27T12:14:58.875Z,3.13
2022-11-27T12:17:48.363Z,3.13
2022-11-27T12:20:17.359Z,3.50
2022-11-27T12:22:43.692Z,3.58
2022-11-27T12:25:10.064Z,3.72
2022-11-27T12:28:00.676Z,3.00
2022-11-27T12:30:43.402Z,3.47
2022-11-27T12:33:28.342Z,3.35
2022-11-27T12:36:27.816Z,3.55
2022-11-27T12:39:24.516Z,4.07
2022-11-27T12:42:29.090Z,3.33
2022-11-27T12:45:12.063Z,3.43
2022-11-27T12:47:41.781Z,3.50
2022-11-27T12:50:19.594Z,4.30
2022-11-27T12:52:56.631Z,3.40
2022-11-27T12:55:26.846Z,2.92
2022-11-27T12:58:05.733Z,3.33
2022-11-27T13:00:36.875Z,3.47
2022-11-27T13:03:03.242Z,3.90
2022-11-27T13:05:46.315Z,3.10
2022-11-27T13:08:21.968Z,3.85
2022-11-27T13:10:54.068Z,3.87
2022-11-27T13:13:31.676Z,3.50
2022-11-27T13:16:03.408Z,3.50
2022-11-27T13:18:36.711Z,3.47
2022-11-27T13:21:10.287Z,3.35
2022-11-27T13:23:36.784Z,3.33
2022-11-27T13:26:29.084Z,3.45
2022-11-27T13:29:00.437Z,3.63
2022-11-27T13:31:37.480Z,3.63
2022-11-27T13:34:10.048Z,3.88
2022-11-27T13:36:44.692Z,3.40
2022-11-27T13:39:29.048Z,3.33
2022-11-27T13:42:12.289Z,3.58
2022-11-27T13:44:43.448Z,3.58
2022-11-27T13:47:20.804Z,4.05
2022-11-27T13:49:59.244Z,3.70
2022-11-27T13:52:25.846Z,3.55
2022-11-27T13:55:10.351Z,4.13
2022-11-27T13:57:38.329Z,3.88
2022-11-27T14:00:11.656Z,3.83
2022-11-27T14:02:45.407Z,4.20
2022-11-27T14:05:13.427Z,3.90
2022-11-27T14:07:46.737Z,3.50
2022-11-27T14:10:48.087Z,3.80
2022-11-27T14:13:14.594Z,3.78
2022-11-27T14:15:41.169Z,3.83
2022-11-27T14:18:17.775Z,4.00
2022-11-27T14:20:53.420Z,4.78
2022-11-27T14:23:32.313Z,4.05
2022-11-27T14:26:15.774Z,4.10
2022-11-27T14:28:45.022Z,4.37
2022-11-27T14:31:31.349Z,3.97
2022-11-27T14:36:44.586Z,3.63
2022-11-27T14:39:25.240Z,4.28
2022-11-27T14:42:19.074Z,3.70
2022-11-27T14:44:45.444Z,4.50
2022-11-27T14:47:20.078Z,3.80
2022-11-27T14:49:46.714Z,3.75
2022-11-27T14:52:16.969Z,3.92
2022-11-27T14:54:44.627Z,4.20
2022-11-27T14:57:20.336Z,4.35
2022-11-27T14:59:46.743Z,4.20
2022-11-27T15:02:13.107Z,4.40
2022-11-27T15:04:44.553Z,5.22
2022-11-27T15:07:21.792Z,4.53
2022-11-27T15:09:54.438Z,4.05
2022-11-27T15:12:23.790Z,4.00
2022-11-27T15:15:10.211Z,4.25
2022-11-27T15:17:39.355Z,4.07
2022-11-27T15:20:23.074Z,4.20
2022-11-27T15:22:51.527Z,4.13
2022-11-27T15:25:35.257Z,4.53
2022-11-27T15:28:01.841Z,3.60
2022-11-27T15:30:28.802Z,3.90
2022-11-27T15:32:55.424Z,4.23
2022-11-27T15:35:28.811Z,3.75
2022-11-27T15:38:04.261Z,4.13
2022-11-27T15:40:36.406Z,4.35
2022-11-27T15:43:06.319Z,4.00
2022-11-27T15:45:33.012Z,3.77
2022-11-27T15:48:01.279Z,4.40
2022-11-27T15:50:29.053Z,3.50
2022-11-27T15:52:55.947Z,3.92
2022-11-27T15:55:23.250Z,3.33
2022-11-27T15:57:49.795Z,3.63
2022-11-27T16:00:16.726Z,4.05
2022-11-27T16:02:43.139Z,3.85
2022-11-27T16:05:09.778Z,3.30
2022-11-27T16:07:36.420Z,3.72
2022-11-27T16:10:02.913Z,4.00
2022-11-27T16:12:29.282Z,3.85
2022-11-27T16:14:55.718Z,4.03
2022-11-27T16:17:22.154Z,3.97
2022-11-27T16:19:48.527Z,3.78
2022-11-27T16:22:14.914Z,3.33
2022-11-27T16:24:41.548Z,4.30
2022-11-27T16:27:08.088Z,4.13
2022-11-27T16:29:34.418Z,3.60
2022-11-27T16:32:01.404Z,3.83
2022-11-27T16:34:27.894Z,3.63
2022-11-27T16:36:54.284Z,4.30
2022-11-27T16:39:20.671Z,3.78
2022-11-27T16:41:47.069Z,4.00
2022-11-27T16:44:14.952Z,3.58
2022-11-27T16:46:43.799Z,3.40
2022-11-27T16:49:11.620Z,3.38
2022-11-27T16:51:39.655Z,3.70
2022-11-27T16:54:09.595Z,3.35
2022-11-27T16:56:38.558Z,3.10
2022-11-27T16:59:13.394Z,2.97
2022-11-27T17:01:41.546Z,3.40
2022-11-27T17:04:09.999Z,3.75
2022-11-27T17:06:38.313Z,3.10
2022-11-27T17:09:06.986Z,3.22
2022-11-27T17:11:35.877Z,3.40
2022-11-27T17:14:08.577Z,3.00
2022-11-27T17:16:36.651Z,3.33
2022-11-27T17:19:03.204Z,3.50
2022-11-27T17:21:31.610Z,3.92
2022-11-27T17:24:00.260Z,3.67
2022-11-27T17:26:29.000Z,3.88
2022-11-27T17:28:56.432Z,4.68
2022-11-27T17:31:25.569Z,4.07
2022-11-27T17:33:56.524Z,3.60
2022-11-27T17:36:26.875Z,3.57
2022-11-27T17:38:53.732Z,3.42
2022-11-27T17:41:20.729Z,3.75
2022-11-27T17:43:47.606Z,3.65
2022-11-27T17:46:21.680Z,3.10
2022-11-27T17:48:49.385Z,3.47
2022-11-27T17:51:16.133Z,4.10
2022-11-27T17:53:42.592Z,3.97
2022-11-27T17:56:12.183Z,4.18
2022-11-27T17:58:38.958Z,3.83
2022-11-27T18:01:07.986Z,4.00
2022-11-27T18:03:34.501Z,3.42
2022-11-27T18:06:05.711Z,3.42
2022-11-27T18:08:32.185Z,3.42
2022-11-27T18:11:07.732Z,3.53
2022-11-27T18:13:34.290Z,3.67
2022-11-27T18:16:06.165Z,3.45
2022-11-27T18:18:32.703Z,3.70
2022-11-27T18:20:59.674Z,3.60
2022-11-27T18:23:26.051Z,3.65
2022-11-27T18:25:52.379Z,3.77
2022-11-27T18:28:18.690Z,3.92
2022-11-27T18:30:45.003Z,3.65
2022-11-27T18:33:11.394Z,4.22
2022-11-27T18:35:42.102Z,4.13
2022-11-27T18:38:08.819Z,3.73
2022-11-27T18:40:39.712Z,3.90
2022-11-27T18:43:06.043Z,4.03
2022-11-27T18:45:33.228Z,3.60
2022-11-27T18:48:00.406Z,4.20
2022-11-27T18:50:35.476Z,4.18
2022-11-27T18:53:03.403Z,3.90
2022-11-27T18:55:34.197Z,4.32
2022-11-27T18:58:00.616Z,3.75
2022-11-27T19:00:27.026Z,3.85
2022-11-27T19:02:53.393Z,4.05
2022-11-27T19:05:20.008Z,4.53
2022-11-27T19:07:46.498Z,4.43
2022-11-27T19:10:12.960Z,4.10
2022-11-27T19:12:39.346Z,4.70
2022-11-27T19:15:06.182Z,4.28
2022-11-27T19:17:32.716Z,4.20
2022-11-27T19:19:59.082Z,3.78
2022-11-27T19:22:25.424Z,3.65
2022-11-27T19:24:51.835Z,4.60
2022-11-27T19:27:18.743Z,3.33
2022-11-27T19:29:45.178Z,4.30
2022-11-27T19:32:11.646Z,3.50
2022-11-27T19:34:38.202Z,3.55
2022-11-27T19:37:04.567Z,3.50
2022-11-27T19:39:31.026Z,3.33
2022-11-27T19:41:57.945Z,4.13
2022-11-27T19:44:24.499Z,3.45
2022-11-27T19:46:50.907Z,3.85
2022-11-27T19:49:17.905Z,4.30
2022-11-27T19:51:45.015Z,3.65
2022-11-27T19:54:16.599Z,4.17
2022-11-27T19:56:43.201Z,4.18
2022-11-27T19:59:11.254Z,4.07
2022-11-27T20:01:40.068Z,3.35
2022-11-27T20:04:07.707Z,3.95
2022-11-27T20:06:34.150Z,4.03
2022-11-27T20:09:02.673Z,4.38
2022-11-27T20:11:34.504Z,4.60
2022-11-27T20:14:01.573Z,3.85
2022-11-27T20:16:28.096Z,4.25
2022-11-27T20:18:55.342Z,4.30
2022-11-27T20:21:24.029Z,4.05
2022-11-27T20:23:51.932Z,4.43
2022-11-27T20:26:24.579Z,3.90
2022-11-27T20:28:52.415Z,4.15
2022-11-27T20:31:25.001Z,4.63
2022-11-27T20:33:53.297Z,4.40
2022-11-27T20:36:21.236Z,4.18
2022-11-27T20:38:47.837Z,3.95
2022-11-27T20:41:16.707Z,4.35
2022-11-27T20:43:43.502Z,4.50
2022-11-27T20:46:14.747Z,3.85
2022-11-27T20:48:41.602Z,4.25
2022-11-27T20:51:10.832Z,4.50
2022-11-27T20:53:37.419Z,4.63
2022-11-27T20:56:05.364Z,4.13
2022-11-27T20:58:31.797Z,4.13
2022-11-27T21:00:59.970Z,4.07
2022-11-27T21:03:28.074Z,4.15
2022-11-27T21:05:54.934Z,4.80
2022-11-27T21:08:22.351Z,4.73
2022-11-27T21:10:50.475Z,5.32
2022-11-27T21:13:17.174Z,4.10
2022-11-27T21:15:47.844Z,4.35
2022-11-27T21:18:14.895Z,4.22
2022-11-27T21:20:42.150Z,4.13
2022-11-27T21:23:08.874Z,4.72
2022-11-27T21:25:37.641Z,4.00
2022-11-27T21:28:04.184Z,4.00
2022-11-27T21:30:30.536Z,4.40
2022-11-27T21:32:57.005Z,4.43
2022-11-27T21:35:27.464Z,4.38
2022-11-27T21:37:56.562Z,3.92
2022-11-27T21:40:22.963Z,5.03
2022-11-27T21:42:51.907Z,4.30
2022-11-27T21:45:18.223Z,4.57
2022-11-27T21:47:44.523Z,4.00
2022-11-27T21:50:11.647Z,4.45
2022-11-27T21:52:37.982Z,3.92
2022-11-27T21:55:09.005Z,4.53
2022-11-27T21:57:38.131Z,4.63
2022-11-27T22:00:06.028Z,4.47
2022-11-27T22:02:32.589Z,4.40
2022-11-27T22:04:58.975Z,4.03
2022-11-27T22:07:25.399Z,4.93
2022-11-27T22:09:51.892Z,3.90
2022-11-27T22:12:18.251Z,4.43
2022-11-27T22:14:44.695Z,4.10
2022-11-27T22:17:11.200Z,3.75
2022-11-27T22:19:42.193Z,3.80
2022-11-27T22:22:08.878Z,3.63
2022-11-27T22:24:35.363Z,4.57
2022-11-27T22:27:01.792Z,3.90
2022-11-27T22:29:28.127Z,3.78
2022-11-27T22:31:54.787Z,4.40
2022-11-27T22:34:21.175Z,4.53
2022-11-27T22:36:47.689Z,4.07
2022-11-27T22:39:14.074Z,4.07
2022-11-27T22:41:41.884Z,4.40
2022-11-27T22:44:11.012Z,3.80
2022-11-27T22:46:40.553Z,3.73
2022-11-27T22:49:07.832Z,3.75
2022-11-27T22:51:35.855Z,4.30
2022-11-27T22:54:03.886Z,4.30
2022-11-27T22:56:30.434Z,4.25
2022-11-27T22:59:24.628Z,3.90
2022-11-27T23:01:45.923Z,4.63
2022-11-27T23:04:12.251Z,4.55
2022-11-27T23:06:38.582Z,4.75
2022-11-27T23:09:05.082Z,4.28
2022-11-27T23:11:31.609Z,4.80
2022-11-27T23:13:59.585Z,5.40
2022-11-27T23:16:26.192Z,5.78
2022-11-27T23:18:52.955Z,4.38
2022-11-27T23:21:21.572Z,4.57
2022-11-27T23:23:48.102Z,5.33
2022-11-27T23:26:18.387Z,5.30
2022-11-27T23:28:46.144Z,4.70
2022-11-27T23:31:29.474Z,4.97
2022-11-27T23:33:57.122Z,5.30
2022-11-27T23:36:23.537Z,4.67
2022-11-27T23:38:50.122Z,4.72
2022-11-27T23:41:19.343Z,5.03
2022-11-27T23:43:45.844Z,4.50
2022-11-27T23:46:14.996Z,5.22
2022-11-27T23:48:42.074Z,5.23
2022-11-27T23:51:15.031Z,5.28
2022-11-27T23:53:41.767Z,4.95
2022-11-27T23:56:14.428Z,5.13
2022-11-27T23:58:46.454Z,5.18
